Holden, UT (84636)

6:23 PM MDT on April 24, 2015 (GMT -0600)
MesoWest | | Change Station
CLOSE
Current Station
Personal Weather Station
Location: Scipio, UT
Elevation: 5959 ft
Nearby Weather Stations

Elev 5959 ft 39.20 °N, 112.17 °W | Updated 53 minutes ago

Mostly Cloudy
Mostly Cloudy
56 °F
Feels Like 56 °F
N
21
Wind Variable Wind from SSW
Gusts 35.0 mph

Today
High -- | Low -- °F
--% Chance of Precip.
Yesterday
High -- | Low -- °F
Precip. -- in
6:40 AM 8:15 PM
Waxing Crescent, 40% visible
Pressure 29.74 in
Visibility 10.0 miles
Clouds Scattered Clouds 7000 ft
Mostly Cloudy 10000 ft
Dew Point 31 °F
Humidity 38%
Rainfall in
Snow Depth Not available.
UV 1 out of 12
Pollen 9.40 out of 12
Air Quality Not available.
Flu Activity Local Activity
SPECI KMLF 250004Z AUTO 29015G27KT 10SM SCT070 BKN100 14/M03 A2974 RMK AO2 PK WND 28027/0000 WSHFT 2346 T01391028 TSNO

More Conditions Fewer Conditions

Pressure 29.74 in
Visibility 10.0 miles
Clouds Scattered Clouds 7000 ft
Mostly Cloudy 10000 ft
Dew Point 31 °F
Humidity 38%
Rainfall in
Snow Depth Not available.
UV 1 out of 12
Pollen 9.40 out of 12
Air Quality Not available.
Flu Activity Local Activity
SPECI KMLF 250004Z AUTO 29015G27KT 10SM SCT070 BKN100 14/M03 A2974 RMK AO2 PK WND 28027/0000 WSHFT 2346 T01391028 TSNO

More Conditions Fewer Conditions

Nowcast | as of 6:12 PM MDT on April 24, 2015

Scattered showers and isolated thunderstorms will continue over northern and central Utah and southwest Wyoming this evening. The strongest storms at 600 PM were located between Snowville and locomotive Springs...southwest of Dugway...and west of Plain City. Cloud to ground lightning...locally heavy rain...small hail...and strong gusty winds are possible with some of these storms.

×

10-Day Weather Forecast

Almanac

Astronomy

Apr. 24, 2015 Rise Set
Actual Time
Civil Twilight
Nautical Twilight
Astronomical Twilight
Moon
Length of Visible Light
Length of Day
Tomorrow will be .
, % of the Moon is Illuminated

Today's Extremes

State Highs State Lows

Community

WunderPhotos

Upload Photos

1,816,515 photos uploaded!

WunderBlogs® & News

Nearby

Air Quality

  Air Quality AQ Index Pollutant
Not available.

Snow Depth

Station Depth Elevation

Earthquake Activity

City Distance Mag. Time & Date
Minimum magnitude displayed is 2.5.

Coastal Water Temperatures

Place Temperature

Stations

Nearby Weather Stations

Station Location Temp. Windchill Dew Point Humidity Wind Precip. Elev Updated Type